Fannin, Texas
Current Conditions -  °F | °C
As of 2:51 AM on Saturday 20 Dec 2014 (Local Time) from KVCT Reporting Station
Overcast Overcast  
Wind Chill: 52°   Ceiling: 1000
Heat Index: 52°   Visibility: 10mi
Dew Point: 48°   Wind: 15mph
Humidity: 86%   Direction: 360°N
Pressure: 30.15"   Gusts: NA
Location:  28.7°N, 97.24°W
Report Text: KVCT 200851Z AUTO 36013KT 10SM OVC010 11/09 A3015 RMK AO2 SLP209 T01110089 56001 $
Loading
Personal Weather Stations






























Interactive Weather Map New forecast layout! Learn more

10-Day Weather Forecast

Advertisements
Track Severe Weather on mobile